sensor_id;sensor_type;location;lat;lon;timestamp;temperature;humidity
13521;DHT22;6832;51.186;3.236;2023-03-01T00:01:38;11.80;50.50
13521;DHT22;6832;51.186;3.236;2023-03-01T00:04:05;11.80;50.50
13521;DHT22;6832;51.186;3.236;2023-03-01T00:06:33;11.80;50.50
13521;DHT22;6832;51.186;3.236;2023-03-01T00:09:02;11.80;50.50
13521;DHT22;6832;51.186;3.236;2023-03-01T00:11:31;11.80;50.50
13521;DHT22;6832;51.186;3.236;2023-03-01T00:14:00;11.80;50.50
13521;DHT22;6832;51.186;3.236;2023-03-01T00:16:33;11.80;50.50
13521;DHT22;6832;51.186;3.236;2023-03-01T00:19:00;11.80;50.50
13521;DHT22;6832;51.186;3.236;2023-03-01T00:21:28;11.70;50.50
13521;DHT22;6832;51.186;3.236;2023-03-01T00:23:56;11.80;50.50
13521;DHT22;6832;51.186;3.236;2023-03-01T00:26:24;11.70;50.50
13521;DHT22;6832;51.186;3.236;2023-03-01T00:28:51;11.70;50.40
13521;DHT22;6832;51.186;3.236;2023-03-01T00:31:20;11.70;50.40
13521;DHT22;6832;51.186;3.236;2023-03-01T00:33:51;11.70;50.50
13521;DHT22;6832;51.186;3.236;2023-03-01T00:36:18;11.70;50.40
13521;DHT22;6832;51.186;3.236;2023-03-01T00:38:45;11.70;50.40
13521;DHT22;6832;51.186;3.236;2023-03-01T00:41:15;11.80;50.50
13521;DHT22;6832;51.186;3.236;2023-03-01T00:43:44;11.70;50.40
13521;DHT22;6832;51.186;3.236;2023-03-01T00:46:13;11.70;50.40
13521;DHT22;6832;51.186;3.236;2023-03-01T00:48:40;11.70;50.40
13521;DHT22;6832;51.186;3.236;2023-03-01T00:51:11;11.70;50.50
13521;DHT22;6832;51.186;3.236;2023-03-01T00:53:39;11.60;50.40
13521;DHT22;6832;51.186;3.236;2023-03-01T00:56:07;11.60;50.30
13521;DHT22;6832;51.186;3.236;2023-03-01T00:58:35;11.60;50.30
13521;DHT22;6832;51.186;3.236;2023-03-01T01:01:07;11.60;50.30
13521;DHT22;6832;51.186;3.236;2023-03-01T01:03:43;11.60;50.40
13521;DHT22;6832;51.186;3.236;2023-03-01T01:06:15;11.60;50.40
13521;DHT22;6832;51.186;3.236;2023-03-01T01:08:42;11.60;50.30
13521;DHT22;6832;51.186;3.236;2023-03-01T01:11:10;11.60;50.40
13521;DHT22;6832;51.186;3.236;2023-03-01T01:13:37;11.60;50.40
13521;DHT22;6832;51.186;3.236;2023-03-01T01:16:04;11.60;50.40
13521;DHT22;6832;51.186;3.236;2023-03-01T01:18:32;11.60;50.40
13521;DHT22;6832;51.186;3.236;2023-03-01T01:21:04;11.60;50.40
13521;DHT22;6832;51.186;3.236;2023-03-01T01:23:32;11.60;50.40
13521;DHT22;6832;51.186;3.236;2023-03-01T01:26:04;11.60;50.40
13521;DHT22;6832;51.186;3.236;2023-03-01T01:28:31;11.60;50.40
13521;DHT22;6832;51.186;3.236;2023-03-01T01:30:59;11.60;50.30
13521;DHT22;6832;51.186;3.236;2023-03-01T01:33:26;11.50;50.30
13521;DHT22;6832;51.186;3.236;2023-03-01T01:35:53;11.50;50.30
13521;DHT22;6832;51.186;3.236;2023-03-01T01:38:20;11.50;50.30
13521;DHT22;6832;51.186;3.236;2023-03-01T01:40:49;11.40;50.20
13521;DHT22;6832;51.186;3.236;2023-03-01T01:43:20;11.50;50.30
13521;DHT22;6832;51.186;3.236;2023-03-01T01:45:48;11.60;50.40
13521;DHT22;6832;51.186;3.236;2023-03-01T01:48:18;11.50;50.30
13521;DHT22;6832;51.186;3.236;2023-03-01T01:50:53;11.50;50.20
13521;DHT22;6832;51.186;3.236;2023-03-01T01:53:21;11.50;50.30
13521;DHT22;6832;51.186;3.236;2023-03-01T01:55:53;11.50;50.30
13521;DHT22;6832;51.186;3.236;2023-03-01T01:58:24;11.50;50.20
13521;DHT22;6832;51.186;3.236;2023-03-01T02:00:51;11.50;50.30
13521;DHT22;6832;51.186;3.236;2023-03-01T02:03:24;11.40;50.20
13521;DHT22;6832;51.186;3.236;2023-03-01T02:05:58;11.50;50.30
13521;DHT22;6832;51.186;3.236;2023-03-01T02:08:29;11.40;50.30
13521;DHT22;6832;51.186;3.236;2023-03-01T02:10:59;11.40;50.30
13521;DHT22;6832;51.186;3.236;2023-03-01T02:13:30;11.40;50.20
13521;DHT22;6832;51.186;3.236;2023-03-01T02:15:57;11.40;50.20
13521;DHT22;6832;51.186;3.236;2023-03-01T02:18:26;11.40;50.20
13521;DHT22;6832;51.186;3.236;2023-03-01T02:21:08;11.40;50.20
13521;DHT22;6832;51.186;3.236;2023-03-01T02:23:38;11.40;50.20
13521;DHT22;6832;51.186;3.236;2023-03-01T02:26:10;11.40;50.20
13521;DHT22;6832;51.186;3.236;2023-03-01T02:28:42;11.40;50.20
13521;DHT22;6832;51.186;3.236;2023-03-01T02:31:11;11.40;50.20
13521;DHT22;6832;51.186;3.236;2023-03-01T02:33:57;11.40;50.20
13521;DHT22;6832;51.186;3.236;2023-03-01T02:36:28;11.40;50.20
13521;DHT22;6832;51.186;3.236;2023-03-01T02:38:58;11.30;50.10
13521;DHT22;6832;51.186;3.236;2023-03-01T02:41:28;11.40;50.20
13521;DHT22;6832;51.186;3.236;2023-03-01T02:43:58;11.30;50.10
13521;DHT22;6832;51.186;3.236;2023-03-01T02:46:26;11.40;50.20
13521;DHT22;6832;51.186;3.236;2023-03-01T02:48:55;11.30;50.20
13521;DHT22;6832;51.186;3.236;2023-03-01T02:51:39;11.30;50.20
13521;DHT22;6832;51.186;3.236;2023-03-01T02:54:17;11.30;50.10
13521;DHT22;6832;51.186;3.236;2023-03-01T02:56:47;11.40;50.30
13521;DHT22;6832;51.186;3.236;2023-03-01T02:59:17;11.30;50.20
13521;DHT22;6832;51.186;3.236;2023-03-01T03:01:45;11.30;50.20
13521;DHT22;6832;51.186;3.236;2023-03-01T03:04:15;11.30;50.20
13521;DHT22;6832;51.186;3.236;2023-03-01T03:06:43;11.30;50.20
13521;DHT22;6832;51.186;3.236;2023-03-01T03:09:11;11.30;50.20
13521;DHT22;6832;51.186;3.236;2023-03-01T03:11:38;11.30;50.20
13521;DHT22;6832;51.186;3.236;2023-03-01T03:14:07;11.30;50.20
13521;DHT22;6832;51.186;3.236;2023-03-01T03:16:41;11.30;50.20
13521;DHT22;6832;51.186;3.236;2023-03-01T03:19:09;11.20;50.10
13521;DHT22;6832;51.186;3.236;2023-03-01T03:21:36;11.20;50.10
13521;DHT22;6832;51.186;3.236;2023-03-01T03:24:04;11.20;50.10
13521;DHT22;6832;51.186;3.236;2023-03-01T03:26:31;11.20;50.10
13521;DHT22;6832;51.186;3.236;2023-03-01T03:28:58;11.20;50.10
13521;DHT22;6832;51.186;3.236;2023-03-01T03:31:25;11.30;50.20
13521;DHT22;6832;51.186;3.236;2023-03-01T03:33:54;11.20;50.10
13521;DHT22;6832;51.186;3.236;2023-03-01T03:36:22;11.20;50.10
13521;DHT22;6832;51.186;3.236;2023-03-01T03:38:50;11.20;50.10
13521;DHT22;6832;51.186;3.236;2023-03-01T03:41:17;11.20;50.10
13521;DHT22;6832;51.186;3.236;2023-03-01T03:43:44;11.20;50.10
13521;DHT22;6832;51.186;3.236;2023-03-01T03:46:12;11.20;50.10
13521;DHT22;6832;51.186;3.236;2023-03-01T03:48:40;11.20;50.00
13521;DHT22;6832;51.186;3.236;2023-03-01T03:51:12;11.20;50.00
13521;DHT22;6832;51.186;3.236;2023-03-01T03:53:39;11.20;50.00
13521;DHT22;6832;51.186;3.236;2023-03-01T03:56:06;11.20;50.10
13521;DHT22;6832;51.186;3.236;2023-03-01T03:58:33;11.20;50.10
13521;DHT22;6832;51.186;3.236;2023-03-01T04:01:01;11.20;50.10
13521;DHT22;6832;51.186;3.236;2023-03-01T04:03:30;11.10;50.00
13521;DHT22;6832;51.186;3.236;2023-03-01T04:05:58;11.10;50.00
13521;DHT22;6832;51.186;3.236;2023-03-01T04:08:27;11.10;50.10
13521;DHT22;6832;51.186;3.236;2023-03-01T04:10:58;11.10;50.00
13521;DHT22;6832;51.186;3.236;2023-03-01T04:13:26;11.10;50.00
13521;DHT22;6832;51.186;3.236;2023-03-01T04:15:54;11.10;50.00
13521;DHT22;6832;51.186;3.236;2023-03-01T04:18:22;11.10;50.00
13521;DHT22;6832;51.186;3.236;2023-03-01T04:20:50;11.10;50.00
13521;DHT22;6832;51.186;3.236;2023-03-01T04:23:21;11.00;49.90
13521;DHT22;6832;51.186;3.236;2023-03-01T04:25:51;11.10;50.00
13521;DHT22;6832;51.186;3.236;2023-03-01T04:28:21;11.10;50.00
13521;DHT22;6832;51.186;3.236;2023-03-01T04:30:50;11.10;50.00
13521;DHT22;6832;51.186;3.236;2023-03-01T04:33:18;11.10;50.00
13521;DHT22;6832;51.186;3.236;2023-03-01T04:35:45;11.10;50.00
13521;DHT22;6832;51.186;3.236;2023-03-01T04:38:15;11.10;50.00
13521;DHT22;6832;51.186;3.236;2023-03-01T04:40:42;11.10;50.00
13521;DHT22;6832;51.186;3.236;2023-03-01T04:43:10;11.00;50.00
13521;DHT22;6832;51.186;3.236;2023-03-01T04:45:42;11.10;50.00
13521;DHT22;6832;51.186;3.236;2023-03-01T04:48:09;11.00;49.90
13521;DHT22;6832;51.186;3.236;2023-03-01T04:50:35;11.00;49.90
13521;DHT22;6832;51.186;3.236;2023-03-01T04:53:03;11.00;49.90
13521;DHT22;6832;51.186;3.236;2023-03-01T04:55:30;11.00;50.00
13521;DHT22;6832;51.186;3.236;2023-03-01T04:57:57;11.00;50.00
13521;DHT22;6832;51.186;3.236;2023-03-01T05:00:25;11.00;49.90
13521;DHT22;6832;51.186;3.236;2023-03-01T05:02:54;11.00;49.90
13521;DHT22;6832;51.186;3.236;2023-03-01T05:05:24;11.00;50.00
13521;DHT22;6832;51.186;3.236;2023-03-01T05:07:53;11.00;49.90
13521;DHT22;6832;51.186;3.236;2023-03-01T05:10:20;11.00;49.90
13521;DHT22;6832;51.186;3.236;2023-03-01T05:12:46;11.00;50.00
13521;DHT22;6832;51.186;3.236;2023-03-01T05:15:13;11.00;49.90
13521;DHT22;6832;51.186;3.236;2023-03-01T05:17:42;11.00;49.90
13521;DHT22;6832;51.186;3.236;2023-03-01T05:20:10;10.90;49.80
13521;DHT22;6832;51.186;3.236;2023-03-01T05:22:37;11.00;50.00
13521;DHT22;6832;51.186;3.236;2023-03-01T05:25:05;11.00;49.90
13521;DHT22;6832;51.186;3.236;2023-03-01T05:27:33;11.00;50.00
13521;DHT22;6832;51.186;3.236;2023-03-01T05:30:00;11.00;49.90
13521;DHT22;6832;51.186;3.236;2023-03-01T05:32:41;11.00;49.90
13521;DHT22;6832;51.186;3.236;2023-03-01T05:35:10;11.00;50.00
13521;DHT22;6832;51.186;3.236;2023-03-01T05:37:42;11.00;49.90
13521;DHT22;6832;51.186;3.236;2023-03-01T05:40:11;10.90;49.90
13521;DHT22;6832;51.186;3.236;2023-03-01T05:42:43;10.90;49.80
13521;DHT22;6832;51.186;3.236;2023-03-01T05:45:11;10.90;49.80
13521;DHT22;6832;51.186;3.236;2023-03-01T05:47:39;10.90;49.80
13521;DHT22;6832;51.186;3.236;2023-03-01T05:50:12;10.90;49.80
13521;DHT22;6832;51.186;3.236;2023-03-01T05:52:39;10.90;49.80
13521;DHT22;6832;51.186;3.236;2023-03-01T05:55:10;10.90;49.80
13521;DHT22;6832;51.186;3.236;2023-03-01T05:57:37;10.90;49.80
13521;DHT22;6832;51.186;3.236;2023-03-01T06:00:04;10.90;49.80
13521;DHT22;6832;51.186;3.236;2023-03-01T06:02:31;10.90;49.90
13521;DHT22;6832;51.186;3.236;2023-03-01T06:04:58;10.90;49.80
13521;DHT22;6832;51.186;3.236;2023-03-01T06:07:26;10.90;49.80
13521;DHT22;6832;51.186;3.236;2023-03-01T06:09:53;10.90;49.80
13521;DHT22;6832;51.186;3.236;2023-03-01T06:12:20;10.90;49.80
13521;DHT22;6832;51.186;3.236;2023-03-01T06:14:48;10.90;49.80
13521;DHT22;6832;51.186;3.236;2023-03-01T06:17:15;10.90;49.80
13521;DHT22;6832;51.186;3.236;2023-03-01T06:19:42;10.90;49.80
13521;DHT22;6832;51.186;3.236;2023-03-01T06:22:09;10.90;49.90
13521;DHT22;6832;51.186;3.236;2023-03-01T06:24:38;10.90;49.80
13521;DHT22;6832;51.186;3.236;2023-03-01T06:27:04;10.90;49.80
13521;DHT22;6832;51.186;3.236;2023-03-01T06:29:31;10.90;49.90
13521;DHT22;6832;51.186;3.236;2023-03-01T06:31:58;10.90;49.90
13521;DHT22;6832;51.186;3.236;2023-03-01T06:34:25;10.70;49.70
13521;DHT22;6832;51.186;3.236;2023-03-01T06:36:52;10.90;49.80
13521;DHT22;6832;51.186;3.236;2023-03-01T06:39:19;10.80;49.80
13521;DHT22;6832;51.186;3.236;2023-03-01T06:41:47;10.80;49.70
13521;DHT22;6832;51.186;3.236;2023-03-01T06:44:14;10.80;49.70
13521;DHT22;6832;51.186;3.236;2023-03-01T06:46:41;10.80;49.80
13521;DHT22;6832;51.186;3.236;2023-03-01T06:49:08;10.80;49.80
13521;DHT22;6832;51.186;3.236;2023-03-01T06:51:35;10.80;49.70
13521;DHT22;6832;51.186;3.236;2023-03-01T06:54:03;10.80;49.70
13521;DHT22;6832;51.186;3.236;2023-03-01T06:56:30;10.80;49.70
13521;DHT22;6832;51.186;3.236;2023-03-01T06:58:59;10.80;49.80
13521;DHT22;6832;51.186;3.236;2023-03-01T07:01:26;10.80;49.70
13521;DHT22;6832;51.186;3.236;2023-03-01T07:03:52;10.80;49.70
13521;DHT22;6832;51.186;3.236;2023-03-01T07:06:19;10.80;49.70
13521;DHT22;6832;51.186;3.236;2023-03-01T07:08:46;10.80;49.70
13521;DHT22;6832;51.186;3.236;2023-03-01T07:11:13;10.80;49.70
13521;DHT22;6832;51.186;3.236;2023-03-01T07:13:41;10.80;49.70
13521;DHT22;6832;51.186;3.236;2023-03-01T07:16:09;10.70;49.60
13521;DHT22;6832;51.186;3.236;2023-03-01T07:18:36;10.80;49.80
13521;DHT22;6832;51.186;3.236;2023-03-01T07:21:07;10.80;49.80
13521;DHT22;6832;51.186;3.236;2023-03-01T07:23:34;10.80;49.80
13521;DHT22;6832;51.186;3.236;2023-03-01T07:26:01;10.80;49.90
13521;DHT22;6832;51.186;3.236;2023-03-01T07:28:28;10.70;49.90
13521;DHT22;6832;51.186;3.236;2023-03-01T07:31:00;10.80;50.00
13521;DHT22;6832;51.186;3.236;2023-03-01T07:33:28;10.80;50.00
13521;DHT22;6832;51.186;3.236;2023-03-01T07:35:56;10.70;49.90
13521;DHT22;6832;51.186;3.236;2023-03-01T07:38:24;10.70;49.90
13521;DHT22;6832;51.186;3.236;2023-03-01T07:40:51;10.70;49.80
13521;DHT22;6832;51.186;3.236;2023-03-01T07:43:18;10.70;49.60
13521;DHT22;6832;51.186;3.236;2023-03-01T07:45:46;10.80;49.60
13521;DHT22;6832;51.186;3.236;2023-03-01T07:48:13;10.70;49.60
13521;DHT22;6832;51.186;3.236;2023-03-01T07:50:41;10.70;49.60
13521;DHT22;6832;51.186;3.236;2023-03-01T07:53:08;10.70;49.70
13521;DHT22;6832;51.186;3.236;2023-03-01T07:55:35;10.70;49.70
13521;DHT22;6832;51.186;3.236;2023-03-01T07:58:02;10.70;49.80
13521;DHT22;6832;51.186;3.236;2023-03-01T08:00:29;10.70;49.80
13521;DHT22;6832;51.186;3.236;2023-03-01T08:02:59;10.70;49.80
13521;DHT22;6832;51.186;3.236;2023-03-01T08:05:26;10.70;49.90
13521;DHT22;6832;51.186;3.236;2023-03-01T08:07:57;10.70;49.90
13521;DHT22;6832;51.186;3.236;2023-03-01T08:10:24;10.70;49.80
13521;DHT22;6832;51.186;3.236;2023-03-01T08:12:51;10.70;49.90
13521;DHT22;6832;51.186;3.236;2023-03-01T08:15:19;10.60;49.80
13521;DHT22;6832;51.186;3.236;2023-03-01T08:17:48;10.70;49.80
13521;DHT22;6832;51.186;3.236;2023-03-01T08:20:16;10.60;49.80
13521;DHT22;6832;51.186;3.236;2023-03-01T08:22:43;10.60;49.80
13521;DHT22;6832;51.186;3.236;2023-03-01T08:25:11;10.70;49.90
13521;DHT22;6832;51.186;3.236;2023-03-01T08:27:38;10.70;50.00
13521;DHT22;6832;51.186;3.236;2023-03-01T08:30:06;10.70;50.00
13521;DHT22;6832;51.186;3.236;2023-03-01T08:32:36;10.70;50.00
13521;DHT22;6832;51.186;3.236;2023-03-01T08:35:04;10.70;50.00
13521;DHT22;6832;51.186;3.236;2023-03-01T08:37:31;10.70;50.00
13521;DHT22;6832;51.186;3.236;2023-03-01T08:39:58;10.60;49.90
13521;DHT22;6832;51.186;3.236;2023-03-01T08:42:27;10.70;50.00
13521;DHT22;6832;51.186;3.236;2023-03-01T08:44:54;10.70;50.10
13521;DHT22;6832;51.186;3.236;2023-03-01T08:47:22;10.70;50.10
13521;DHT22;6832;51.186;3.236;2023-03-01T08:49:49;10.70;50.10
13521;DHT22;6832;51.186;3.236;2023-03-01T08:52:16;10.70;50.10
13521;DHT22;6832;51.186;3.236;2023-03-01T08:54:43;10.60;50.10
13521;DHT22;6832;51.186;3.236;2023-03-01T08:57:11;10.70;50.10
13521;DHT22;6832;51.186;3.236;2023-03-01T08:59:39;10.70;50.20
13521;DHT22;6832;51.186;3.236;2023-03-01T09:02:12;10.70;50.10
13521;DHT22;6832;51.186;3.236;2023-03-01T09:04:39;10.70;50.20
13521;DHT22;6832;51.186;3.236;2023-03-01T09:07:07;10.70;50.20
13521;DHT22;6832;51.186;3.236;2023-03-01T09:09:35;10.70;50.20
13521;DHT22;6832;51.186;3.236;2023-03-01T09:12:02;10.70;50.10
13521;DHT22;6832;51.186;3.236;2023-03-01T09:14:29;10.70;50.30
13521;DHT22;6832;51.186;3.236;2023-03-01T09:16:57;10.70;50.30
13521;DHT22;6832;51.186;3.236;2023-03-01T09:19:28;10.70;50.20
13521;DHT22;6832;51.186;3.236;2023-03-01T09:21:55;10.70;50.30
13521;DHT22;6832;51.186;3.236;2023-03-01T09:24:24;10.70;50.30
13521;DHT22;6832;51.186;3.236;2023-03-01T09:26:53;10.70;50.30
13521;DHT22;6832;51.186;3.236;2023-03-01T09:29:20;10.70;50.30
13521;DHT22;6832;51.186;3.236;2023-03-01T09:31:47;10.70;50.30
13521;DHT22;6832;51.186;3.236;2023-03-01T09:34:16;10.70;50.30
13521;DHT22;6832;51.186;3.236;2023-03-01T09:36:48;10.70;50.30
13521;DHT22;6832;51.186;3.236;2023-03-01T09:39:15;10.70;50.30
13521;DHT22;6832;51.186;3.236;2023-03-01T09:41:56;10.70;50.30
13521;DHT22;6832;51.186;3.236;2023-03-01T09:44:31;10.70;50.30
13521;DHT22;6832;51.186;3.236;2023-03-01T09:47:00;10.70;50.30
13521;DHT22;6832;51.186;3.236;2023-03-01T09:49:30;10.80;50.40
13521;DHT22;6832;51.186;3.236;2023-03-01T09:52:05;10.80;50.50
13521;DHT22;6832;51.186;3.236;2023-03-01T09:54:34;10.80;50.50
13521;DHT22;6832;51.186;3.236;2023-03-01T09:57:11;10.80;50.60
13521;DHT22;6832;51.186;3.236;2023-03-01T09:59:53;10.80;50.60
13521;DHT22;6832;51.186;3.236;2023-03-01T10:02:28;10.80;50.70
13521;DHT22;6832;51.186;3.236;2023-03-01T10:05:06;10.80;50.60
13521;DHT22;6832;51.186;3.236;2023-03-01T10:07:46;10.80;50.70
13521;DHT22;6832;51.186;3.236;2023-03-01T10:10:23;10.90;50.80
13521;DHT22;6832;51.186;3.236;2023-03-01T10:12:53;10.90;50.80
13521;DHT22;6832;51.186;3.236;2023-03-01T10:15:29;10.90;50.80
13521;DHT22;6832;51.186;3.236;2023-03-01T10:18:06;10.90;50.80
13521;DHT22;6832;51.186;3.236;2023-03-01T10:20:43;10.90;50.80
13521;DHT22;6832;51.186;3.236;2023-03-01T10:23:13;11.00;50.90
13521;DHT22;6832;51.186;3.236;2023-03-01T10:25:50;11.00;51.50
13521;DHT22;6832;51.186;3.236;2023-03-01T10:28:25;11.10;51.00
13521;DHT22;6832;51.186;3.236;2023-03-01T10:30:53;11.00;50.90
13521;DHT22;6832;51.186;3.236;2023-03-01T10:33:23;11.10;50.90
13521;DHT22;6832;51.186;3.236;2023-03-01T10:35:53;11.10;51.00
13521;DHT22;6832;51.186;3.236;2023-03-01T10:38:20;11.10;51.00
13521;DHT22;6832;51.186;3.236;2023-03-01T10:40:52;11.10;50.90
13521;DHT22;6832;51.186;3.236;2023-03-01T10:43:22;11.20;51.10
13521;DHT22;6832;51.186;3.236;2023-03-01T10:45:50;11.20;51.10
13521;DHT22;6832;51.186;3.236;2023-03-01T10:48:18;11.20;51.10
13521;DHT22;6832;51.186;3.236;2023-03-01T10:50:51;11.20;51.10
13521;DHT22;6832;51.186;3.236;2023-03-01T10:53:34;11.30;51.10
13521;DHT22;6832;51.186;3.236;2023-03-01T10:56:04;11.30;51.10
13521;DHT22;6832;51.186;3.236;2023-03-01T10:58:36;11.30;51.10
13521;DHT22;6832;51.186;3.236;2023-03-01T11:01:04;11.30;51.10
13521;DHT22;6832;51.186;3.236;2023-03-01T11:03:33;11.30;51.10
13521;DHT22;6832;51.186;3.236;2023-03-01T11:06:05;11.40;51.10
13521;DHT22;6832;51.186;3.236;2023-03-01T11:08:44;11.40;51.10
13521;DHT22;6832;51.186;3.236;2023-03-01T11:11:24;11.40;51.20
13521;DHT22;6832;51.186;3.236;2023-03-01T11:13:55;11.50;51.30
13521;DHT22;6832;51.186;3.236;2023-03-01T11:16:25;11.50;51.80
13521;DHT22;6832;51.186;3.236;2023-03-01T11:19:19;11.50;51.20
13521;DHT22;6832;51.186;3.236;2023-03-01T11:21:57;11.50;51.30
13521;DHT22;6832;51.186;3.236;2023-03-01T11:24:39;11.60;51.30
13521;DHT22;6832;51.186;3.236;2023-03-01T11:27:19;11.60;51.30
13521;DHT22;6832;51.186;3.236;2023-03-01T11:29:56;11.60;51.30
13521;DHT22;6832;51.186;3.236;2023-03-01T11:32:28;11.70;51.30
13521;DHT22;6832;51.186;3.236;2023-03-01T11:35:02;11.60;51.30
13521;DHT22;6832;51.186;3.236;2023-03-01T11:37:35;11.70;51.30
13521;DHT22;6832;51.186;3.236;2023-03-01T11:40:17;11.70;51.30
13521;DHT22;6832;51.186;3.236;2023-03-01T11:43:04;11.80;51.40
13521;DHT22;6832;51.186;3.236;2023-03-01T11:45:42;11.80;51.40
13521;DHT22;6832;51.186;3.236;2023-03-01T11:48:32;11.80;51.40
13521;DHT22;6832;51.186;3.236;2023-03-01T11:51:09;11.80;51.40
13521;DHT22;6832;51.186;3.236;2023-03-01T11:53:54;11.90;51.40
13521;DHT22;6832;51.186;3.236;2023-03-01T11:56:30;11.90;51.40
13521;DHT22;6832;51.186;3.236;2023-03-01T11:59:16;11.90;51.30
13521;DHT22;6832;51.186;3.236;2023-03-01T12:01:55;11.90;51.30
13521;DHT22;6832;51.186;3.236;2023-03-01T12:04:48;12.00;51.40
13521;DHT22;6832;51.186;3.236;2023-03-01T12:07:21;12.00;51.40
13521;DHT22;6832;51.186;3.236;2023-03-01T12:10:07;12.00;51.40
13521;DHT22;6832;51.186;3.236;2023-03-01T12:12:57;12.10;51.50
13521;DHT22;6832;51.186;3.236;2023-03-01T12:15:39;12.10;51.40
13521;DHT22;6832;51.186;3.236;2023-03-01T12:18:20;12.10;51.40
13521;DHT22;6832;51.186;3.236;2023-03-01T12:20:58;12.10;51.50
13521;DHT22;6832;51.186;3.236;2023-03-01T12:23:47;12.10;51.40
13521;DHT22;6832;51.186;3.236;2023-03-01T12:26:23;12.20;51.50
13521;DHT22;6832;51.186;3.236;2023-03-01T12:29:08;12.30;51.60
13521;DHT22;6832;51.186;3.236;2023-03-01T12:31:53;12.20;52.10
13521;DHT22;6832;51.186;3.236;2023-03-01T12:34:41;12.30;51.60
13521;DHT22;6832;51.186;3.236;2023-03-01T12:37:22;12.30;51.60
13521;DHT22;6832;51.186;3.236;2023-03-01T12:40:05;12.30;51.60
13521;DHT22;6832;51.186;3.236;2023-03-01T12:42:45;12.30;51.80
13521;DHT22;6832;51.186;3.236;2023-03-01T12:45:31;12.30;51.90
13521;DHT22;6832;51.186;3.236;2023-03-01T12:48:19;12.40;52.00
13521;DHT22;6832;51.186;3.236;2023-03-01T12:51:01;12.40;52.00
13521;DHT22;6832;51.186;3.236;2023-03-01T12:53:31;12.50;52.10
13521;DHT22;6832;51.186;3.236;2023-03-01T12:56:00;12.50;52.00
13521;DHT22;6832;51.186;3.236;2023-03-01T12:58:32;12.50;52.00
13521;DHT22;6832;51.186;3.236;2023-03-01T13:01:16;12.60;52.10
13521;DHT22;6832;51.186;3.236;2023-03-01T13:03:58;12.60;52.20
13521;DHT22;6832;51.186;3.236;2023-03-01T13:06:34;12.60;52.10
13521;DHT22;6832;51.186;3.236;2023-03-01T13:09:09;12.70;52.10
13521;DHT22;6832;51.186;3.236;2023-03-01T13:11:41;12.70;52.10
13521;DHT22;6832;51.186;3.236;2023-03-01T13:14:36;12.70;52.10
13521;DHT22;6832;51.186;3.236;2023-03-01T13:17:30;12.80;52.20
13521;DHT22;6832;51.186;3.236;2023-03-01T13:19:59;12.80;52.30
13521;DHT22;6832;51.186;3.236;2023-03-01T13:22:28;12.80;52.20
13521;DHT22;6832;51.186;3.236;2023-03-01T13:25:03;12.90;52.30
13521;DHT22;6832;51.186;3.236;2023-03-01T13:27:38;12.90;52.40
13521;DHT22;6832;51.186;3.236;2023-03-01T13:30:40;12.90;52.20
13521;DHT22;6832;51.186;3.236;2023-03-01T13:33:37;13.00;52.40
13521;DHT22;6832;51.186;3.236;2023-03-01T13:36:07;13.00;52.40
13521;DHT22;6832;51.186;3.236;2023-03-01T13:38:38;13.10;52.30
13521;DHT22;6832;51.186;3.236;2023-03-01T13:41:07;13.10;52.40
13521;DHT22;6832;51.186;3.236;2023-03-01T13:43:35;13.10;52.30
13521;DHT22;6832;51.186;3.236;2023-03-01T13:46:14;13.00;52.20
13521;DHT22;6832;51.186;3.236;2023-03-01T13:48:44;13.20;52.40
13521;DHT22;6832;51.186;3.236;2023-03-01T13:51:12;13.20;52.40
13521;DHT22;6832;51.186;3.236;2023-03-01T13:53:41;13.30;52.40
13521;DHT22;6832;51.186;3.236;2023-03-01T13:56:15;13.30;52.40
13521;DHT22;6832;51.186;3.236;2023-03-01T13:58:47;13.30;52.40
13521;DHT22;6832;51.186;3.236;2023-03-01T14:01:25;13.30;52.40
13521;DHT22;6832;51.186;3.236;2023-03-01T14:03:54;13.30;52.40
13521;DHT22;6832;51.186;3.236;2023-03-01T14:06:24;13.40;52.50
13521;DHT22;6832;51.186;3.236;2023-03-01T14:09:00;13.40;52.40
13521;DHT22;6832;51.186;3.236;2023-03-01T14:11:54;13.40;52.40
13521;DHT22;6832;51.186;3.236;2023-03-01T14:14:36;13.40;52.30
13521;DHT22;6832;51.186;3.236;2023-03-01T14:17:31;13.40;52.20
13521;DHT22;6832;51.186;3.236;2023-03-01T14:20:10;13.50;52.20
13521;DHT22;6832;51.186;3.236;2023-03-01T14:22:41;13.50;52.20
13521;DHT22;6832;51.186;3.236;2023-03-01T14:25:20;13.50;52.10
13521;DHT22;6832;51.186;3.236;2023-03-01T14:31:35;13.40;52.10
13521;DHT22;6832;51.186;3.236;2023-03-01T14:34:03;13.60;52.20
13521;DHT22;6832;51.186;3.236;2023-03-01T14:36:32;13.50;52.10
13521;DHT22;6832;51.186;3.236;2023-03-01T14:39:00;13.50;52.10
13521;DHT22;6832;51.186;3.236;2023-03-01T14:41:33;13.60;52.20
13521;DHT22;6832;51.186;3.236;2023-03-01T14:44:06;13.60;52.30
13521;DHT22;6832;51.186;3.236;2023-03-01T14:46:36;13.60;52.20
13521;DHT22;6832;51.186;3.236;2023-03-01T14:50:40;13.60;52.20
13521;DHT22;6832;51.186;3.236;2023-03-01T14:52:34;13.60;52.30
13521;DHT22;6832;51.186;3.236;2023-03-01T14:55:05;13.60;52.10
13521;DHT22;6832;51.186;3.236;2023-03-01T14:57:32;13.60;52.10
13521;DHT22;6832;51.186;3.236;2023-03-01T15:00:03;13.60;52.00
13521;DHT22;6832;51.186;3.236;2023-03-01T15:05:42;13.70;52.10
13521;DHT22;6832;51.186;3.236;2023-03-01T15:08:18;13.60;52.00
13521;DHT22;6832;51.186;3.236;2023-03-01T15:10:59;13.70;52.00
13521;DHT22;6832;51.186;3.236;2023-03-01T15:13:30;13.70;52.00
13521;DHT22;6832;51.186;3.236;2023-03-01T15:16:06;13.70;52.00
13521;DHT22;6832;51.186;3.236;2023-03-01T15:18:34;13.60;51.90
13521;DHT22;6832;51.186;3.236;2023-03-01T15:21:13;13.70;52.00
13521;DHT22;6832;51.186;3.236;2023-03-01T15:23:48;13.70;51.90
13521;DHT22;6832;51.186;3.236;2023-03-01T15:26:28;13.70;51.90
13521;DHT22;6832;51.186;3.236;2023-03-01T15:28:57;13.70;51.80
13521;DHT22;6832;51.186;3.236;2023-03-01T15:31:26;13.70;51.80
13521;DHT22;6832;51.186;3.236;2023-03-01T15:34:09;13.70;51.80
13521;DHT22;6832;51.186;3.236;2023-03-01T15:36:41;13.70;51.80
13521;DHT22;6832;51.186;3.236;2023-03-01T15:42:11;13.70;51.70
13521;DHT22;6832;51.186;3.236;2023-03-01T15:44:48;13.70;51.70
13521;DHT22;6832;51.186;3.236;2023-03-01T15:47:28;13.70;51.70
13521;DHT22;6832;51.186;3.236;2023-03-01T15:49:59;13.70;51.60
13521;DHT22;6832;51.186;3.236;2023-03-01T15:52:28;13.70;51.60
13521;DHT22;6832;51.186;3.236;2023-03-01T15:54:57;13.70;51.70
13521;DHT22;6832;51.186;3.236;2023-03-01T15:57:58;13.70;51.70
13521;DHT22;6832;51.186;3.236;2023-03-01T16:00:27;13.70;51.70
13521;DHT22;6832;51.186;3.236;2023-03-01T16:02:54;13.70;51.70
13521;DHT22;6832;51.186;3.236;2023-03-01T16:05:23;13.70;51.70
13521;DHT22;6832;51.186;3.236;2023-03-01T16:07:51;13.70;51.70
13521;DHT22;6832;51.186;3.236;2023-03-01T16:10:18;13.70;51.70
13521;DHT22;6832;51.186;3.236;2023-03-01T16:12:45;13.70;51.70
13521;DHT22;6832;51.186;3.236;2023-03-01T16:15:17;13.70;51.80
13521;DHT22;6832;51.186;3.236;2023-03-01T16:17:45;13.70;51.80
13521;DHT22;6832;51.186;3.236;2023-03-01T16:20:12;13.70;51.80
13521;DHT22;6832;51.186;3.236;2023-03-01T16:22:41;13.70;51.80